Raceland, Louisiana
Current Conditions -  °F | °C
As of 4:50 PM on Thursday 18 Dec 2014 (Local Time) from KHUM Reporting Station
Broken Clouds Broken Clouds  
Wind Chill: 64°   Ceiling: 600
Heat Index: 64°   Visibility: 7mi
Dew Point: 59°   Wind: 5mph
Humidity: 83%   Direction: 100°E
Pressure: 30.09"   Gusts: NA
Location:  29.73°N, 90.61°W
Report Text: KHUM 182250Z 10004KT 7SM BKN0060 18/15 A3009 RMK RY12/30 CLSD ATIS H VA RY18 DV
Loading
Personal Weather Stations






























Interactive Weather Map New forecast layout! Learn more

10-Day Weather Forecast

Advertisements
Track Severe Weather on mobile